sensor_id;sensor_type;location;lat;lon;timestamp;P1;durP1;ratioP1;P2;durP2;ratioP2
17472;SDS011;8853;52.552;13.356;2022-08-11T00:00:33;3.25;;;1.87;;
17472;SDS011;8853;52.552;13.356;2022-08-11T00:03:05;5.83;;;2.08;;
17472;SDS011;8853;52.552;13.356;2022-08-11T00:05:38;2.70;;;1.70;;
17472;SDS011;8853;52.552;13.356;2022-08-11T00:08:02;2.37;;;1.65;;
17472;SDS011;8853;52.552;13.356;2022-08-11T00:10:31;3.90;;;1.70;;
17472;SDS011;8853;52.552;13.356;2022-08-11T00:13:01;2.98;;;1.70;;
17472;SDS011;8853;52.552;13.356;2022-08-11T00:15:37;3.05;;;1.82;;
17472;SDS011;8853;52.552;13.356;2022-08-11T00:18:06;4.35;;;1.62;;
17472;SDS011;8853;52.552;13.356;2022-08-11T00:20:36;3.98;;;1.65;;
17472;SDS011;8853;52.552;13.356;2022-08-11T00:23:10;3.00;;;1.85;;
17472;SDS011;8853;52.552;13.356;2022-08-11T00:25:42;2.37;;;1.98;;
17472;SDS011;8853;52.552;13.356;2022-08-11T00:28:21;3.47;;;1.82;;
17472;SDS011;8853;52.552;13.356;2022-08-11T00:30:54;3.87;;;1.80;;
17472;SDS011;8853;52.552;13.356;2022-08-11T00:33:23;2.80;;;1.62;;
17472;SDS011;8853;52.552;13.356;2022-08-11T00:35:53;2.37;;;1.85;;
17472;SDS011;8853;52.552;13.356;2022-08-11T00:38:22;2.60;;;1.70;;
17472;SDS011;8853;52.552;13.356;2022-08-11T00:40:52;3.00;;;1.95;;
17472;SDS011;8853;52.552;13.356;2022-08-11T00:43:24;3.33;;;1.60;;
17472;SDS011;8853;52.552;13.356;2022-08-11T00:46:04;2.33;;;1.52;;
17472;SDS011;8853;52.552;13.356;2022-08-11T00:48:47;7.15;;;2.00;;
17472;SDS011;8853;52.552;13.356;2022-08-11T00:51:24;3.75;;;1.77;;
17472;SDS011;8853;52.552;13.356;2022-08-11T00:57:11;4.92;;;1.80;;
17472;SDS011;8853;52.552;13.356;2022-08-11T01:05:42;3.35;;;1.95;;
17472;SDS011;8853;52.552;13.356;2022-08-11T01:22:58;2.80;;;1.82;;
17472;SDS011;8853;52.552;13.356;2022-08-11T01:25:47;3.72;;;2.20;;
17472;SDS011;8853;52.552;13.356;2022-08-11T01:34:07;3.02;;;1.80;;
17472;SDS011;8853;52.552;13.356;2022-08-11T01:36:41;2.85;;;1.98;;
17472;SDS011;8853;52.552;13.356;2022-08-11T01:42:43;4.78;;;2.02;;
17472;SDS011;8853;52.552;13.356;2022-08-11T01:46:03;2.80;;;1.80;;
17472;SDS011;8853;52.552;13.356;2022-08-11T01:53:52;5.22;;;1.90;;
17472;SDS011;8853;52.552;13.356;2022-08-11T01:59:16;2.45;;;1.90;;
17472;SDS011;8853;52.552;13.356;2022-08-11T02:02:32;2.90;;;1.87;;
17472;SDS011;8853;52.552;13.356;2022-08-11T02:16:18;3.83;;;1.70;;
17472;SDS011;8853;52.552;13.356;2022-08-11T02:22:15;3.35;;;1.60;;
17472;SDS011;8853;52.552;13.356;2022-08-11T02:25:05;3.65;;;1.77;;
17472;SDS011;8853;52.552;13.356;2022-08-11T02:27:35;4.28;;;1.80;;
17472;SDS011;8853;52.552;13.356;2022-08-11T02:30:07;4.30;;;1.87;;
17472;SDS011;8853;52.552;13.356;2022-08-11T02:32:38;4.75;;;1.90;;
17472;SDS011;8853;52.552;13.356;2022-08-11T02:38:52;2.83;;;1.98;;
17472;SDS011;8853;52.552;13.356;2022-08-11T02:41:25;4.20;;;2.00;;
17472;SDS011;8853;52.552;13.356;2022-08-11T02:47:06;4.75;;;2.22;;
17472;SDS011;8853;52.552;13.356;2022-08-11T02:49:56;4.90;;;2.10;;
17472;SDS011;8853;52.552;13.356;2022-08-11T02:52:25;3.15;;;2.17;;
17472;SDS011;8853;52.552;13.356;2022-08-11T02:59:54;5.50;;;2.20;;
17472;SDS011;8853;52.552;13.356;2022-08-11T03:05:47;2.72;;;1.92;;
17472;SDS011;8853;52.552;13.356;2022-08-11T03:11:30;3.50;;;2.10;;
17472;SDS011;8853;52.552;13.356;2022-08-11T03:17:56;3.83;;;2.00;;
17472;SDS011;8853;52.552;13.356;2022-08-11T03:23:13;3.90;;;2.33;;
17472;SDS011;8853;52.552;13.356;2022-08-11T03:25:44;3.45;;;2.12;;
17472;SDS011;8853;52.552;13.356;2022-08-11T03:28:38;4.75;;;2.35;;
17472;SDS011;8853;52.552;13.356;2022-08-11T03:31:22;4.05;;;2.40;;
17472;SDS011;8853;52.552;13.356;2022-08-11T03:33:57;5.45;;;2.17;;
17472;SDS011;8853;52.552;13.356;2022-08-11T03:36:58;4.60;;;2.10;;
17472;SDS011;8853;52.552;13.356;2022-08-11T03:39:41;4.00;;;1.92;;
17472;SDS011;8853;52.552;13.356;2022-08-11T03:42:15;2.98;;;2.00;;
17472;SDS011;8853;52.552;13.356;2022-08-11T03:48:30;4.17;;;1.60;;
17472;SDS011;8853;52.552;13.356;2022-08-11T03:51:12;3.00;;;2.20;;
17472;SDS011;8853;52.552;13.356;2022-08-11T03:53:43;2.75;;;2.08;;
17472;SDS011;8853;52.552;13.356;2022-08-11T03:56:18;4.37;;;1.95;;
17472;SDS011;8853;52.552;13.356;2022-08-11T04:02:05;6.22;;;2.42;;
17472;SDS011;8853;52.552;13.356;2022-08-11T04:04:56;3.10;;;2.12;;
17472;SDS011;8853;52.552;13.356;2022-08-11T04:32:23;3.02;;;2.30;;
17472;SDS011;8853;52.552;13.356;2022-08-11T04:35:18;3.37;;;2.17;;
17472;SDS011;8853;52.552;13.356;2022-08-11T04:38:13;3.95;;;2.60;;
17472;SDS011;8853;52.552;13.356;2022-08-11T04:56:22;5.72;;;3.42;;
17472;SDS011;8853;52.552;13.356;2022-08-11T05:14:48;9.50;;;3.70;;
17472;SDS011;8853;52.552;13.356;2022-08-11T05:20:25;6.85;;;3.20;;
17472;SDS011;8853;52.552;13.356;2022-08-11T05:23:12;7.47;;;3.10;;
17472;SDS011;8853;52.552;13.356;2022-08-11T05:26:00;7.42;;;3.40;;
17472;SDS011;8853;52.552;13.356;2022-08-11T05:28:54;6.90;;;2.92;;
17472;SDS011;8853;52.552;13.356;2022-08-11T05:31:42;7.37;;;3.20;;
17472;SDS011;8853;52.552;13.356;2022-08-11T05:34:32;5.90;;;2.98;;
17472;SDS011;8853;52.552;13.356;2022-08-11T05:37:20;5.42;;;2.77;;
17472;SDS011;8853;52.552;13.356;2022-08-11T05:39:55;6.72;;;3.67;;
17472;SDS011;8853;52.552;13.356;2022-08-11T05:42:51;5.42;;;3.30;;
17472;SDS011;8853;52.552;13.356;2022-08-11T05:45:37;6.12;;;3.00;;
17472;SDS011;8853;52.552;13.356;2022-08-11T05:48:28;7.87;;;3.20;;
17472;SDS011;8853;52.552;13.356;2022-08-11T05:51:12;6.28;;;3.60;;
17472;SDS011;8853;52.552;13.356;2022-08-11T05:53:59;9.03;;;3.40;;
17472;SDS011;8853;52.552;13.356;2022-08-11T05:56:48;8.25;;;2.90;;
17472;SDS011;8853;52.552;13.356;2022-08-11T05:59:16;7.05;;;3.22;;
17472;SDS011;8853;52.552;13.356;2022-08-11T06:01:44;5.60;;;2.65;;
17472;SDS011;8853;52.552;13.356;2022-08-11T06:04:16;4.78;;;2.77;;
17472;SDS011;8853;52.552;13.356;2022-08-11T06:07:00;5.47;;;2.80;;
17472;SDS011;8853;52.552;13.356;2022-08-11T06:12:16;5.00;;;3.05;;
17472;SDS011;8853;52.552;13.356;2022-08-11T06:14:55;6.03;;;2.90;;
17472;SDS011;8853;52.552;13.356;2022-08-11T06:17:21;5.42;;;2.90;;
17472;SDS011;8853;52.552;13.356;2022-08-11T06:19:59;8.03;;;3.05;;
17472;SDS011;8853;52.552;13.356;2022-08-11T06:22:30;4.78;;;2.75;;
17472;SDS011;8853;52.552;13.356;2022-08-11T06:24:59;7.35;;;3.10;;
17472;SDS011;8853;52.552;13.356;2022-08-11T06:27:29;6.87;;;2.92;;
17472;SDS011;8853;52.552;13.356;2022-08-11T06:29:56;5.00;;;2.60;;
17472;SDS011;8853;52.552;13.356;2022-08-11T06:32:26;4.33;;;2.60;;
17472;SDS011;8853;52.552;13.356;2022-08-11T06:37:45;4.83;;;2.65;;
17472;SDS011;8853;52.552;13.356;2022-08-11T06:40:33;6.12;;;2.90;;
17472;SDS011;8853;52.552;13.356;2022-08-11T06:43:17;5.60;;;2.67;;
17472;SDS011;8853;52.552;13.356;2022-08-11T06:48:30;6.22;;;2.72;;
17472;SDS011;8853;52.552;13.356;2022-08-11T06:51:02;6.08;;;2.60;;
17472;SDS011;8853;52.552;13.356;2022-08-11T06:56:26;4.58;;;2.77;;
17472;SDS011;8853;52.552;13.356;2022-08-11T06:59:13;4.50;;;2.50;;
17472;SDS011;8853;52.552;13.356;2022-08-11T07:02:14;7.50;;;3.20;;
17472;SDS011;8853;52.552;13.356;2022-08-11T07:04:48;4.00;;;2.75;;
17472;SDS011;8853;52.552;13.356;2022-08-11T07:13:15;3.72;;;2.52;;
17472;SDS011;8853;52.552;13.356;2022-08-11T07:16:02;3.35;;;2.50;;
17472;SDS011;8853;52.552;13.356;2022-08-11T07:18:32;5.28;;;2.60;;
17472;SDS011;8853;52.552;13.356;2022-08-11T07:21:29;2.65;;;2.37;;
17472;SDS011;8853;52.552;13.356;2022-08-11T07:24:16;3.45;;;2.58;;
17472;SDS011;8853;52.552;13.356;2022-08-11T07:27:07;2.95;;;2.45;;
17472;SDS011;8853;52.552;13.356;2022-08-11T07:29:54;3.00;;;2.50;;
17472;SDS011;8853;52.552;13.356;2022-08-11T07:32:24;6.55;;;3.05;;
17472;SDS011;8853;52.552;13.356;2022-08-11T07:34:54;4.25;;;2.60;;
17472;SDS011;8853;52.552;13.356;2022-08-11T07:37:23;4.08;;;2.37;;
17472;SDS011;8853;52.552;13.356;2022-08-11T07:39:51;3.80;;;2.60;;
17472;SDS011;8853;52.552;13.356;2022-08-11T07:42:21;8.20;;;2.40;;
17472;SDS011;8853;52.552;13.356;2022-08-11T07:44:49;5.05;;;2.40;;
17472;SDS011;8853;52.552;13.356;2022-08-11T07:47:36;4.05;;;2.50;;
17472;SDS011;8853;52.552;13.356;2022-08-11T07:50:23;5.05;;;2.62;;
17472;SDS011;8853;52.552;13.356;2022-08-11T07:53:11;3.70;;;2.60;;
17472;SDS011;8853;52.552;13.356;2022-08-11T07:55:40;3.22;;;2.30;;
17472;SDS011;8853;52.552;13.356;2022-08-11T07:58:08;4.15;;;2.33;;
17472;SDS011;8853;52.552;13.356;2022-08-11T08:00:56;3.77;;;2.60;;
17472;SDS011;8853;52.552;13.356;2022-08-11T08:03:44;3.27;;;2.47;;
17472;SDS011;8853;52.552;13.356;2022-08-11T08:06:31;3.58;;;2.52;;
17472;SDS011;8853;52.552;13.356;2022-08-11T08:09:19;5.08;;;2.77;;
17472;SDS011;8853;52.552;13.356;2022-08-11T08:12:07;4.78;;;2.75;;
17472;SDS011;8853;52.552;13.356;2022-08-11T08:14:55;4.37;;;2.70;;
17472;SDS011;8853;52.552;13.356;2022-08-11T08:17:42;4.28;;;2.60;;
17472;SDS011;8853;52.552;13.356;2022-08-11T08:20:20;2.47;;;2.27;;
17472;SDS011;8853;52.552;13.356;2022-08-11T08:22:52;3.42;;;2.75;;
17472;SDS011;8853;52.552;13.356;2022-08-11T08:25:27;3.02;;;2.20;;
17472;SDS011;8853;52.552;13.356;2022-08-11T08:27:55;3.10;;;2.30;;
17472;SDS011;8853;52.552;13.356;2022-08-11T08:30:24;3.83;;;2.20;;
17472;SDS011;8853;52.552;13.356;2022-08-11T08:33:11;3.83;;;2.45;;
17472;SDS011;8853;52.552;13.356;2022-08-11T08:35:40;3.50;;;2.30;;
17472;SDS011;8853;52.552;13.356;2022-08-11T08:38:08;2.52;;;2.33;;
17472;SDS011;8853;52.552;13.356;2022-08-11T08:40:37;4.45;;;2.70;;
17472;SDS011;8853;52.552;13.356;2022-08-11T08:43:07;4.20;;;2.47;;
17472;SDS011;8853;52.552;13.356;2022-08-11T08:45:35;3.67;;;2.60;;
17472;SDS011;8853;52.552;13.356;2022-08-11T08:48:05;3.27;;;2.37;;
17472;SDS011;8853;52.552;13.356;2022-08-11T08:50:33;3.50;;;2.45;;
17472;SDS011;8853;52.552;13.356;2022-08-11T08:53:20;3.22;;;2.52;;
17472;SDS011;8853;52.552;13.356;2022-08-11T08:55:48;4.20;;;2.45;;
17472;SDS011;8853;52.552;13.356;2022-08-11T08:58:18;2.55;;;2.30;;
17472;SDS011;8853;52.552;13.356;2022-08-11T09:00:45;4.87;;;2.50;;
17472;SDS011;8853;52.552;13.356;2022-08-11T09:03:15;2.80;;;2.17;;
17472;SDS011;8853;52.552;13.356;2022-08-11T09:05:43;2.70;;;2.35;;
17472;SDS011;8853;52.552;13.356;2022-08-11T09:08:12;4.08;;;2.60;;
17472;SDS011;8853;52.552;13.356;2022-08-11T09:10:41;2.50;;;2.20;;
17472;SDS011;8853;52.552;13.356;2022-08-11T09:13:09;4.97;;;2.65;;
17472;SDS011;8853;52.552;13.356;2022-08-11T09:15:38;3.52;;;2.45;;
17472;SDS011;8853;52.552;13.356;2022-08-11T09:18:07;2.50;;;2.17;;
17472;SDS011;8853;52.552;13.356;2022-08-11T09:20:35;5.47;;;2.47;;
17472;SDS011;8853;52.552;13.356;2022-08-11T09:23:05;2.67;;;2.10;;
17472;SDS011;8853;52.552;13.356;2022-08-11T09:25:52;2.92;;;2.27;;
17472;SDS011;8853;52.552;13.356;2022-08-11T09:28:40;3.10;;;2.20;;
17472;SDS011;8853;52.552;13.356;2022-08-11T09:31:07;4.10;;;2.80;;
17472;SDS011;8853;52.552;13.356;2022-08-11T09:33:36;3.77;;;2.00;;
17472;SDS011;8853;52.552;13.356;2022-08-11T09:36:05;4.55;;;2.90;;
17472;SDS011;8853;52.552;13.356;2022-08-11T09:38:52;2.90;;;2.30;;
17472;SDS011;8853;52.552;13.356;2022-08-11T09:41:40;4.22;;;2.22;;
17472;SDS011;8853;52.552;13.356;2022-08-11T09:44:08;2.75;;;2.27;;
17472;SDS011;8853;52.552;13.356;2022-08-11T09:46:56;3.10;;;2.15;;
17472;SDS011;8853;52.552;13.356;2022-08-11T09:49:25;2.77;;;2.20;;
17472;SDS011;8853;52.552;13.356;2022-08-11T09:51:53;2.52;;;1.95;;
17472;SDS011;8853;52.552;13.356;2022-08-11T09:54:22;3.58;;;2.25;;
17472;SDS011;8853;52.552;13.356;2022-08-11T09:56:51;3.90;;;2.30;;
17472;SDS011;8853;52.552;13.356;2022-08-11T09:59:38;2.87;;;2.10;;
17472;SDS011;8853;52.552;13.356;2022-08-11T10:02:08;2.90;;;2.20;;
17472;SDS011;8853;52.552;13.356;2022-08-11T10:07:08;3.52;;;2.37;;
17472;SDS011;8853;52.552;13.356;2022-08-11T10:12:29;3.22;;;2.30;;
17472;SDS011;8853;52.552;13.356;2022-08-11T10:15:07;3.22;;;2.30;;
17472;SDS011;8853;52.552;13.356;2022-08-11T10:17:56;3.27;;;2.22;;
17472;SDS011;8853;52.552;13.356;2022-08-11T10:20:46;3.33;;;2.35;;
17472;SDS011;8853;52.552;13.356;2022-08-11T10:23:13;2.80;;;2.17;;
17472;SDS011;8853;52.552;13.356;2022-08-11T10:26:01;2.72;;;1.98;;
17472;SDS011;8853;52.552;13.356;2022-08-11T10:28:48;3.50;;;2.12;;
17472;SDS011;8853;52.552;13.356;2022-08-11T10:31:17;2.55;;;2.10;;
17472;SDS011;8853;52.552;13.356;2022-08-11T10:34:04;2.58;;;2.10;;
17472;SDS011;8853;52.552;13.356;2022-08-11T10:36:33;2.45;;;2.02;;
17472;SDS011;8853;52.552;13.356;2022-08-11T10:39:02;2.15;;;1.95;;
17472;SDS011;8853;52.552;13.356;2022-08-11T10:41:30;2.58;;;1.92;;
17472;SDS011;8853;52.552;13.356;2022-08-11T10:44:17;2.80;;;2.10;;
17472;SDS011;8853;52.552;13.356;2022-08-11T10:46:45;3.30;;;1.92;;
17472;SDS011;8853;52.552;13.356;2022-08-11T10:49:34;2.52;;;2.05;;
17472;SDS011;8853;52.552;13.356;2022-08-11T10:52:02;3.70;;;2.02;;
17472;SDS011;8853;52.552;13.356;2022-08-11T10:54:50;2.42;;;2.22;;
17472;SDS011;8853;52.552;13.356;2022-08-11T10:57:38;2.80;;;2.08;;
17472;SDS011;8853;52.552;13.356;2022-08-11T11:00:26;3.37;;;2.12;;
17472;SDS011;8853;52.552;13.356;2022-08-11T11:02:55;2.72;;;2.20;;
17472;SDS011;8853;52.552;13.356;2022-08-11T11:05:25;3.05;;;2.00;;
17472;SDS011;8853;52.552;13.356;2022-08-11T11:10:55;2.90;;;2.22;;
17472;SDS011;8853;52.552;13.356;2022-08-11T11:13:24;3.33;;;2.10;;
17472;SDS011;8853;52.552;13.356;2022-08-11T11:16:11;2.12;;;1.92;;
17472;SDS011;8853;52.552;13.356;2022-08-11T11:18:59;3.12;;;2.25;;
17472;SDS011;8853;52.552;13.356;2022-08-11T11:21:27;2.00;;;1.80;;
17472;SDS011;8853;52.552;13.356;2022-08-11T11:24:08;3.67;;;2.22;;
17472;SDS011;8853;52.552;13.356;2022-08-11T11:27:13;2.37;;;1.90;;
17472;SDS011;8853;52.552;13.356;2022-08-11T11:29:50;3.80;;;2.47;;
17472;SDS011;8853;52.552;13.356;2022-08-11T11:35:48;2.20;;;2.00;;
17472;SDS011;8853;52.552;13.356;2022-08-11T11:38:28;2.70;;;1.95;;
17472;SDS011;8853;52.552;13.356;2022-08-11T11:40:57;2.77;;;2.00;;
17472;SDS011;8853;52.552;13.356;2022-08-11T11:43:44;3.45;;;2.00;;
17472;SDS011;8853;52.552;13.356;2022-08-11T11:46:14;2.37;;;2.12;;
17472;SDS011;8853;52.552;13.356;2022-08-11T11:48:42;2.30;;;1.90;;
17472;SDS011;8853;52.552;13.356;2022-08-11T11:51:11;2.67;;;2.12;;
17472;SDS011;8853;52.552;13.356;2022-08-11T11:53:43;2.87;;;1.85;;
17472;SDS011;8853;52.552;13.356;2022-08-11T11:56:11;2.20;;;2.00;;
17472;SDS011;8853;52.552;13.356;2022-08-11T11:58:40;2.20;;;1.90;;
17472;SDS011;8853;52.552;13.356;2022-08-11T12:01:27;2.12;;;1.92;;
17472;SDS011;8853;52.552;13.356;2022-08-11T12:03:56;2.12;;;1.80;;
17472;SDS011;8853;52.552;13.356;2022-08-11T12:06:25;2.60;;;2.10;;
17472;SDS011;8853;52.552;13.356;2022-08-11T12:08:54;2.42;;;1.90;;
17472;SDS011;8853;52.552;13.356;2022-08-11T12:11:23;2.85;;;1.90;;
17472;SDS011;8853;52.552;13.356;2022-08-11T12:14:09;1.90;;;1.80;;
17472;SDS011;8853;52.552;13.356;2022-08-11T12:16:38;2.15;;;1.77;;
17472;SDS011;8853;52.552;13.356;2022-08-11T12:19:07;3.12;;;2.02;;
17472;SDS011;8853;52.552;13.356;2022-08-11T12:21:38;1.90;;;1.70;;
17472;SDS011;8853;52.552;13.356;2022-08-11T12:24:09;2.00;;;1.80;;
17472;SDS011;8853;52.552;13.356;2022-08-11T12:26:57;2.65;;;1.95;;
17472;SDS011;8853;52.552;13.356;2022-08-11T12:29:45;1.70;;;1.57;;
17472;SDS011;8853;52.552;13.356;2022-08-11T12:32:16;3.02;;;1.77;;
17472;SDS011;8853;52.552;13.356;2022-08-11T12:34:45;2.85;;;2.00;;
17472;SDS011;8853;52.552;13.356;2022-08-11T12:37:13;1.98;;;1.70;;
17472;SDS011;8853;52.552;13.356;2022-08-11T12:39:43;1.90;;;1.72;;
17472;SDS011;8853;52.552;13.356;2022-08-11T12:42:30;2.05;;;1.77;;
17472;SDS011;8853;52.552;13.356;2022-08-11T12:45:18;1.70;;;1.60;;
17472;SDS011;8853;52.552;13.356;2022-08-11T12:47:57;2.00;;;1.70;;
17472;SDS011;8853;52.552;13.356;2022-08-11T12:51:00;2.15;;;1.80;;
17472;SDS011;8853;52.552;13.356;2022-08-11T12:53:58;3.02;;;2.02;;
17472;SDS011;8853;52.552;13.356;2022-08-11T12:56:26;2.08;;;1.87;;
17472;SDS011;8853;52.552;13.356;2022-08-11T12:59:11;1.87;;;1.72;;
17472;SDS011;8853;52.552;13.356;2022-08-11T13:01:59;2.95;;;1.95;;
17472;SDS011;8853;52.552;13.356;2022-08-11T13:04:47;1.98;;;1.77;;
17472;SDS011;8853;52.552;13.356;2022-08-11T13:07:22;2.02;;;1.75;;
17472;SDS011;8853;52.552;13.356;2022-08-11T13:09:50;1.62;;;1.52;;
17472;SDS011;8853;52.552;13.356;2022-08-11T13:12:19;1.55;;;1.45;;
17472;SDS011;8853;52.552;13.356;2022-08-11T13:15:07;2.02;;;1.70;;
17472;SDS011;8853;52.552;13.356;2022-08-11T13:17:36;2.77;;;1.90;;
17472;SDS011;8853;52.552;13.356;2022-08-11T13:20:06;2.85;;;1.80;;
17472;SDS011;8853;52.552;13.356;2022-08-11T13:22:34;1.90;;;1.50;;
17472;SDS011;8853;52.552;13.356;2022-08-11T13:25:03;2.00;;;1.70;;
17472;SDS011;8853;52.552;13.356;2022-08-11T13:27:32;1.87;;;1.70;;
17472;SDS011;8853;52.552;13.356;2022-08-11T13:30:00;1.75;;;1.57;;
17472;SDS011;8853;52.552;13.356;2022-08-11T13:32:48;1.95;;;1.75;;
17472;SDS011;8853;52.552;13.356;2022-08-11T13:35:16;2.05;;;1.82;;
17472;SDS011;8853;52.552;13.356;2022-08-11T13:37:46;1.60;;;1.50;;
17472;SDS011;8853;52.552;13.356;2022-08-11T13:40:15;1.90;;;1.80;;
17472;SDS011;8853;52.552;13.356;2022-08-11T13:42:43;2.55;;;1.87;;
17472;SDS011;8853;52.552;13.356;2022-08-11T13:45:12;1.72;;;1.50;;
17472;SDS011;8853;52.552;13.356;2022-08-11T13:47:41;1.70;;;1.60;;
17472;SDS011;8853;52.552;13.356;2022-08-11T13:50:09;1.90;;;1.70;;
17472;SDS011;8853;52.552;13.356;2022-08-11T13:52:39;1.67;;;1.57;;
17472;SDS011;8853;52.552;13.356;2022-08-11T13:55:08;2.50;;;1.82;;
17472;SDS011;8853;52.552;13.356;2022-08-11T13:57:36;1.70;;;1.55;;
17472;SDS011;8853;52.552;13.356;2022-08-11T14:00:06;2.05;;;1.70;;
17472;SDS011;8853;52.552;13.356;2022-08-11T14:02:37;2.00;;;1.80;;
17472;SDS011;8853;52.552;13.356;2022-08-11T14:05:07;1.70;;;1.60;;
17472;SDS011;8853;52.552;13.356;2022-08-11T14:07:47;2.10;;;1.87;;
17472;SDS011;8853;52.552;13.356;2022-08-11T14:10:16;1.70;;;1.60;;
17472;SDS011;8853;52.552;13.356;2022-08-11T14:12:46;1.70;;;1.60;;
17472;SDS011;8853;52.552;13.356;2022-08-11T14:15:33;1.70;;;1.50;;
17472;SDS011;8853;52.552;13.356;2022-08-11T14:18:08;1.80;;;1.70;;
17472;SDS011;8853;52.552;13.356;2022-08-11T14:20:36;1.70;;;1.50;;
17472;SDS011;8853;52.552;13.356;2022-08-11T14:23:27;1.98;;;1.77;;
17472;SDS011;8853;52.552;13.356;2022-08-11T14:26:11;2.12;;;1.75;;
17472;SDS011;8853;52.552;13.356;2022-08-11T14:29:05;2.02;;;1.70;;
17472;SDS011;8853;52.552;13.356;2022-08-11T14:31:45;1.80;;;1.70;;
17472;SDS011;8853;52.552;13.356;2022-08-11T14:34:13;1.90;;;1.70;;
17472;SDS011;8853;52.552;13.356;2022-08-11T14:36:44;1.75;;;1.65;;
17472;SDS011;8853;52.552;13.356;2022-08-11T14:39:17;1.60;;;1.50;;
17472;SDS011;8853;52.552;13.356;2022-08-11T14:41:47;2.70;;;1.55;;
17472;SDS011;8853;52.552;13.356;2022-08-11T14:44:33;1.98;;;1.77;;
17472;SDS011;8853;52.552;13.356;2022-08-11T14:47:21;1.55;;;1.45;;
17472;SDS011;8853;52.552;13.356;2022-08-11T14:49:49;2.02;;;1.80;;
17472;SDS011;8853;52.552;13.356;2022-08-11T14:52:18;1.52;;;1.42;;
17472;SDS011;8853;52.552;13.356;2022-08-11T14:54:47;1.55;;;1.45;;
17472;SDS011;8853;52.552;13.356;2022-08-11T14:57:34;1.60;;;1.50;;
17472;SDS011;8853;52.552;13.356;2022-08-11T15:00:03;2.05;;;1.85;;
17472;SDS011;8853;52.552;13.356;2022-08-11T15:02:32;1.82;;;1.67;;
17472;SDS011;8853;52.552;13.356;2022-08-11T15:05:22;1.70;;;1.60;;
17472;SDS011;8853;52.552;13.356;2022-08-11T15:07:51;1.65;;;1.55;;
17472;SDS011;8853;52.552;13.356;2022-08-11T15:10:19;2.20;;;1.70;;
17472;SDS011;8853;52.552;13.356;2022-08-11T15:12:48;1.62;;;1.40;;
17472;SDS011;8853;52.552;13.356;2022-08-11T15:15:17;1.57;;;1.47;;
17472;SDS011;8853;52.552;13.356;2022-08-11T15:18:05;1.90;;;1.70;;
17472;SDS011;8853;52.552;13.356;2022-08-11T15:20:33;1.67;;;1.40;;
17472;SDS011;8853;52.552;13.356;2022-08-11T15:23:20;1.60;;;1.50;;
17472;SDS011;8853;52.552;13.356;2022-08-11T15:26:10;1.32;;;1.22;;
17472;SDS011;8853;52.552;13.356;2022-08-11T15:28:54;1.50;;;1.40;;
17472;SDS011;8853;52.552;13.356;2022-08-11T15:31:42;1.65;;;1.55;;
17472;SDS011;8853;52.552;13.356;2022-08-11T15:34:29;1.60;;;1.50;;
17472;SDS011;8853;52.552;13.356;2022-08-11T15:37:17;1.65;;;1.55;;
17472;SDS011;8853;52.552;13.356;2022-08-11T15:42:51;1.75;;;1.65;;
17472;SDS011;8853;52.552;13.356;2022-08-11T15:45:40;1.77;;;1.47;;
17472;SDS011;8853;52.552;13.356;2022-08-11T15:51:05;1.50;;;1.40;;
17472;SDS011;8853;52.552;13.356;2022-08-11T15:53:52;1.60;;;1.50;;
17472;SDS011;8853;52.552;13.356;2022-08-11T15:56:21;1.50;;;1.40;;
17472;SDS011;8853;52.552;13.356;2022-08-11T15:58:49;1.72;;;1.50;;
17472;SDS011;8853;52.552;13.356;2022-08-11T16:01:36;1.60;;;1.50;;
17472;SDS011;8853;52.552;13.356;2022-08-11T16:04:23;2.35;;;1.50;;
17472;SDS011;8853;52.552;13.356;2022-08-11T16:06:53;1.50;;;1.40;;
17472;SDS011;8853;52.552;13.356;2022-08-11T16:09:21;1.40;;;1.30;;
17472;SDS011;8853;52.552;13.356;2022-08-11T16:12:14;1.42;;;1.32;;
17472;SDS011;8853;52.552;13.356;2022-08-11T16:14:42;1.62;;;1.47;;
17472;SDS011;8853;52.552;13.356;2022-08-11T16:17:33;1.50;;;1.40;;
17472;SDS011;8853;52.552;13.356;2022-08-11T16:20:01;2.30;;;1.55;;
17472;SDS011;8853;52.552;13.356;2022-08-11T16:22:31;1.60;;;1.50;;
17472;SDS011;8853;52.552;13.356;2022-08-11T16:25:02;2.02;;;1.50;;
17472;SDS011;8853;52.552;13.356;2022-08-11T16:27:30;1.50;;;1.40;;
17472;SDS011;8853;52.552;13.356;2022-08-11T16:29:58;1.40;;;1.30;;
17472;SDS011;8853;52.552;13.356;2022-08-11T16:32:27;1.80;;;1.50;;
17472;SDS011;8853;52.552;13.356;2022-08-11T16:34:56;1.75;;;1.50;;
17472;SDS011;8853;52.552;13.356;2022-08-11T16:37:43;2.33;;;1.65;;
17472;SDS011;8853;52.552;13.356;2022-08-11T16:40:31;1.62;;;1.52;;
17472;SDS011;8853;52.552;13.356;2022-08-11T16:43:00;1.50;;;1.40;;
17472;SDS011;8853;52.552;13.356;2022-08-11T16:45:47;1.98;;;1.62;;
17472;SDS011;8853;52.552;13.356;2022-08-11T16:48:35;1.30;;;1.20;;
17472;SDS011;8853;52.552;13.356;2022-08-11T16:51:07;2.85;;;1.90;;
17472;SDS011;8853;52.552;13.356;2022-08-11T16:53:35;1.35;;;1.20;;
17472;SDS011;8853;52.552;13.356;2022-08-11T16:56:04;1.57;;;1.47;;
17472;SDS011;8853;52.552;13.356;2022-08-11T16:58:35;1.40;;;1.30;;
17472;SDS011;8853;52.552;13.356;2022-08-11T17:01:25;1.40;;;1.30;;
17472;SDS011;8853;52.552;13.356;2022-08-11T17:04:08;7.03;;;1.70;;
17472;SDS011;8853;52.552;13.356;2022-08-11T17:06:54;2.02;;;1.65;;
17472;SDS011;8853;52.552;13.356;2022-08-11T17:09:41;1.42;;;1.32;;
17472;SDS011;8853;52.552;13.356;2022-08-11T17:12:28;1.40;;;1.30;;
17472;SDS011;8853;52.552;13.356;2022-08-11T17:15:16;2.65;;;1.30;;
17472;SDS011;8853;52.552;13.356;2022-08-11T17:18:04;1.40;;;1.30;;
17472;SDS011;8853;52.552;13.356;2022-08-11T17:20:31;2.70;;;1.40;;
17472;SDS011;8853;52.552;13.356;2022-08-11T17:23:00;1.37;;;1.27;;
17472;SDS011;8853;52.552;13.356;2022-08-11T17:25:48;1.80;;;1.37;;
17472;SDS011;8853;52.552;13.356;2022-08-11T17:28:36;1.50;;;1.37;;
17472;SDS011;8853;52.552;13.356;2022-08-11T17:31:05;1.82;;;1.37;;
17472;SDS011;8853;52.552;13.356;2022-08-11T17:33:52;1.52;;;1.42;;
17472;SDS011;8853;52.552;13.356;2022-08-11T17:36:40;1.42;;;1.30;;
17472;SDS011;8853;52.552;13.356;2022-08-11T17:39:12;1.70;;;1.30;;
17472;SDS011;8853;52.552;13.356;2022-08-11T17:41:40;1.77;;;1.30;;
17472;SDS011;8853;52.552;13.356;2022-08-11T17:44:12;1.52;;;1.42;;
17472;SDS011;8853;52.552;13.356;2022-08-11T17:46:59;3.60;;;1.40;;
17472;SDS011;8853;52.552;13.356;2022-08-11T17:49:47;2.47;;;1.37;;
17472;SDS011;8853;52.552;13.356;2022-08-11T17:52:15;1.50;;;1.32;;
17472;SDS011;8853;52.552;13.356;2022-08-11T17:55:02;1.32;;;1.22;;
17472;SDS011;8853;52.552;13.356;2022-08-11T17:57:50;1.67;;;1.17;;
17472;SDS011;8853;52.552;13.356;2022-08-11T18:00:37;1.40;;;1.30;;
17472;SDS011;8853;52.552;13.356;2022-08-11T18:03:06;1.50;;;1.37;;
17472;SDS011;8853;52.552;13.356;2022-08-11T18:05:53;1.65;;;1.30;;
17472;SDS011;8853;52.552;13.356;2022-08-11T18:08:22;1.52;;;1.40;;
17472;SDS011;8853;52.552;13.356;2022-08-11T18:11:09;1.82;;;1.30;;
17472;SDS011;8853;52.552;13.356;2022-08-11T18:13:57;1.50;;;1.40;;
17472;SDS011;8853;52.552;13.356;2022-08-11T18:16:44;1.47;;;1.30;;
17472;SDS011;8853;52.552;13.356;2022-08-11T18:19:32;1.90;;;1.57;;
17472;SDS011;8853;52.552;13.356;2022-08-11T18:22:39;1.35;;;1.25;;
17472;SDS011;8853;52.552;13.356;2022-08-11T18:25:25;1.35;;;1.20;;
17472;SDS011;8853;52.552;13.356;2022-08-11T18:28:13;1.82;;;1.40;;
17472;SDS011;8853;52.552;13.356;2022-08-11T18:31:00;1.90;;;1.37;;
17472;SDS011;8853;52.552;13.356;2022-08-11T18:33:49;1.50;;;1.40;;
17472;SDS011;8853;52.552;13.356;2022-08-11T18:36:37;1.50;;;1.40;;
17472;SDS011;8853;52.552;13.356;2022-08-11T18:39:22;1.82;;;1.42;;
17472;SDS011;8853;52.552;13.356;2022-08-11T18:42:11;1.60;;;1.50;;
17472;SDS011;8853;52.552;13.356;2022-08-11T18:44:58;1.87;;;1.20;;
17472;SDS011;8853;52.552;13.356;2022-08-11T18:47:47;1.75;;;1.40;;
17472;SDS011;8853;52.552;13.356;2022-08-11T18:50:35;2.05;;;1.60;;